Time;durP1;ratioP1;P1;durP2;ratioP2;P2;SDS_P1;SDS_P2;PMS_P1;PMS_P2;Temp;Humidity;BMP_temperature;BMP_pressure;BME280_temperature;BME280_humidity;BME280_pressure;Samples;Min_cycle;Max_cycle;Signal;HPM_P1;HPM_P2
2023/06/09 00:01:12;;;;;;;9.23;6.53;;;;;;;;;;7365510;19;20661;-68
2023/06/09 00:03:39;;;;;;;8.27;5.97;;;;;;;;;;7366849;19;20006;-68
2023/06/09 00:06:05;;;;;;;9.13;6.50;;;;;;;;;;7369733;19;20445;-68
2023/06/09 00:08:31;;;;;;;9.32;6.65;;;;;;;;;;7368862;19;20046;-68
2023/06/09 00:10:56;;;;;;;9.65;6.75;;;;;;;;;;7391190;19;20003;-68
2023/06/09 00:13:22;;;;;;;8.70;7.00;;;;;;;;;;7367030;19;20013;-68
2023/06/09 00:15:47;;;;;;;9.13;6.63;;;;;;;;;;7368099;19;20029;-68
2023/06/09 00:18:15;;;;;;;12.77;6.82;;;;;;;;;;7370505;19;20014;-67
2023/06/09 00:20:42;;;;;;;9.82;7.38;;;;;;;;;;7372257;19;20021;-68
2023/06/09 00:23:08;;;;;;;9.05;6.70;;;;;;;;;;7371512;19;20395;-67
2023/06/09 00:25:33;;;;;;;11.30;6.95;;;;;;;;;;7391888;19;20003;-68
2023/06/09 00:27:59;;;;;;;10.23;6.78;;;;;;;;;;7369173;19;20666;-68
2023/06/09 00:30:24;;;;;;;9.63;7.45;;;;;;;;;;7368001;19;20484;-68
2023/06/09 00:32:49;;;;;;;11.35;7.28;;;;;;;;;;7368265;19;20107;-68
2023/06/09 00:35:15;;;;;;;13.90;7.95;;;;;;;;;;7367390;19;20030;-68
2023/06/09 00:37:40;;;;;;;18.95;7.85;;;;;;;;;;7385690;19;20011;-68
2023/06/09 00:40:07;;;;;;;13.88;7.93;;;;;;;;;;7364103;19;20022;-68
2023/06/09 00:42:33;;;;;;;12.25;7.55;;;;;;;;;;7365355;19;20449;-68
2023/06/09 00:44:58;;;;;;;10.70;7.55;;;;;;;;;;7366554;19;20015;-68
2023/06/09 00:47:25;;;;;;;13.25;7.95;;;;;;;;;;7367079;19;20016;-68
2023/06/09 00:49:50;;;;;;;11.77;7.30;;;;;;;;;;7391713;19;20003;-68
2023/06/09 00:52:16;;;;;;;12.50;7.40;;;;;;;;;;7368326;19;20030;-68
2023/06/09 00:54:42;;;;;;;9.35;7.07;;;;;;;;;;7376045;19;20011;-68
2023/06/09 00:57:08;;;;;;;11.90;7.68;;;;;;;;;;7377161;19;20007;-68
2023/06/09 00:59:35;;;;;;;14.38;7.28;;;;;;;;;;7375986;19;20006;-68
2023/06/09 01:02:03;;;;;;;11.73;7.47;;;;;;;;;;7393641;19;20003;-68
2023/06/09 01:04:29;;;;;;;11.52;7.80;;;;;;;;;;7367569;19;20011;-68
2023/06/09 01:07:04;;;;;;;10.25;6.63;;;;;;;;;;7365474;19;20034;-68
2023/06/09 01:09:38;;;;;;;10.63;6.97;;;;;;;;;;7367531;19;20130;-68
2023/06/09 01:12:12;;;;;;;13.05;7.05;;;;;;;;;;7367752;19;20019;-68
2023/06/09 01:14:58;;;;;;;9.77;6.93;;;;;;;;;;7368354;19;20062;-68
2023/06/09 01:17:27;;;;;;;12.93;7.22;;;;;;;;;;7366726;19;20002;-68
2023/06/09 01:19:57;;;;;;;11.65;7.10;;;;;;;;;;7388487;19;20074;-68
2023/06/09 01:22:35;;;;;;;9.70;6.60;;;;;;;;;;7367134;19;20074;-68
2023/06/09 01:25:26;;;;;;;10.05;7.05;;;;;;;;;;7372988;19;20006;-68
2023/06/09 01:27:52;;;;;;;12.48;7.03;;;;;;;;;;7371212;19;20465;-67
2023/06/09 01:30:20;;;;;;;17.20;7.05;;;;;;;;;;7374019;19;20007;-68
2023/06/09 01:32:48;;;;;;;13.15;7.45;;;;;;;;;;7372737;19;20464;-67
2023/06/09 01:35:14;;;;;;;13.60;7.68;;;;;;;;;;7373442;19;20014;-66
2023/06/09 01:37:40;;;;;;;14.05;7.60;;;;;;;;;;7393544;19;20074;-66
2023/06/09 01:40:08;;;;;;;12.48;7.53;;;;;;;;;;7372056;19;20489;-66
2023/06/09 01:42:34;;;;;;;10.18;7.65;;;;;;;;;;7372132;19;20003;-68
2023/06/09 01:44:59;;;;;;;12.45;8.20;;;;;;;;;;7371388;19;20048;-68
2023/06/09 01:47:25;;;;;;;10.30;7.47;;;;;;;;;;7372296;19;20007;-68
2023/06/09 01:50:35;;;;;;;14.00;7.95;;;;;;;;;;7392439;19;20349;-68
2023/06/09 01:53:15;;;;;;;11.50;7.63;;;;;;;;;;7269588;19;2006473;-67
2023/06/09 01:55:55;;;;;;;15.52;7.97;;;;;;;;;;7395675;19;20014;-67
2023/06/09 01:58:28;;;;;;;13.88;6.97;;;;;;;;;;7370461;19;20006;-68
2023/06/09 02:00:56;;;;;;;13.02;7.65;;;;;;;;;;7372440;19;20014;-68
2023/06/09 02:03:23;;;;;;;13.98;7.05;;;;;;;;;;7373170;19;20014;-68
2023/06/09 02:05:51;;;;;;;11.05;6.68;;;;;;;;;;7373107;19;20010;-66
2023/06/09 02:08:17;;;;;;;8.95;6.88;;;;;;;;;;7370558;19;20010;-68
2023/06/09 02:10:43;;;;;;;10.65;6.57;;;;;;;;;;7395227;19;20007;-68
2023/06/09 02:13:13;;;;;;;12.73;6.78;;;;;;;;;;7372035;19;20002;-68
2023/06/09 02:15:39;;;;;;;8.77;6.13;;;;;;;;;;7369743;19;20012;-68
2023/06/09 02:18:04;;;;;;;9.57;6.55;;;;;;;;;;7371715;19;20828;-68
2023/06/09 02:20:29;;;;;;;12.50;6.25;;;;;;;;;;7370764;19;20034;-68
2023/06/09 02:22:55;;;;;;;9.68;6.55;;;;;;;;;;7393320;19;19998;-68
2023/06/09 02:25:20;;;;;;;8.48;6.55;;;;;;;;;;7371752;19;20042;-68
2023/06/09 02:27:46;;;;;;;10.30;7.22;;;;;;;;;;7369167;19;20385;-68
2023/06/09 02:30:11;;;;;;;9.88;7.22;;;;;;;;;;7372053;19;20552;-68
2023/06/09 02:32:36;;;;;;;11.90;7.35;;;;;;;;;;7370821;19;20015;-68
2023/06/09 02:35:03;;;;;;;11.48;7.03;;;;;;;;;;7390403;19;20018;-67
2023/06/09 02:37:29;;;;;;;12.15;6.93;;;;;;;;;;7369144;19;20010;-68
2023/06/09 02:39:55;;;;;;;11.88;7.07;;;;;;;;;;7368725;19;20026;-68
2023/06/09 02:42:20;;;;;;;9.15;6.63;;;;;;;;;;7370208;19;20018;-68
2023/06/09 02:44:48;;;;;;;10.52;7.07;;;;;;;;;;7371153;19;20019;-68
2023/06/09 02:47:14;;;;;;;9.90;6.75;;;;;;;;;;7369621;19;20031;-68
2023/06/09 02:49:40;;;;;;;9.02;6.95;;;;;;;;;;7392596;19;20010;-67
2023/06/09 02:52:05;;;;;;;11.35;7.50;;;;;;;;;;7369921;19;20045;-67
2023/06/09 02:54:31;;;;;;;9.55;6.78;;;;;;;;;;7369436;19;20014;-67
2023/06/09 02:56:56;;;;;;;9.80;7.05;;;;;;;;;;7369660;19;20010;-68
2023/06/09 02:59:22;;;;;;;9.68;6.93;;;;;;;;;;7369293;19;20014;-66
2023/06/09 03:01:47;;;;;;;10.40;6.72;;;;;;;;;;7391256;19;20541;-68
2023/06/09 03:04:13;;;;;;;11.55;7.03;;;;;;;;;;7370651;19;20475;-67
2023/06/09 03:06:39;;;;;;;8.50;6.47;;;;;;;;;;7370729;19;20010;-67
2023/06/09 03:09:04;;;;;;;14.18;6.78;;;;;;;;;;7370710;19;20622;-67
2023/06/09 03:11:30;;;;;;;10.93;6.78;;;;;;;;;;7368887;19;20019;-67
2023/06/09 03:13:56;;;;;;;11.95;6.95;;;;;;;;;;7392216;19;20017;-67
2023/06/09 03:16:21;;;;;;;10.57;6.82;;;;;;;;;;7368199;19;20013;-66
2023/06/09 03:18:46;;;;;;;10.95;6.57;;;;;;;;;;7370069;19;20066;-67
2023/06/09 03:21:13;;;;;;;9.38;6.65;;;;;;;;;;7369484;19;20006;-68
2023/06/09 03:23:40;;;;;;;10.38;6.60;;;;;;;;;;7367102;19;20017;-68
2023/06/09 03:26:06;;;;;;;13.30;7.00;;;;;;;;;;7369876;19;20031;-67
2023/06/09 03:28:31;;;;;;;9.50;7.28;;;;;;;;;;7388942;19;20014;-68
2023/06/09 03:30:56;;;;;;;12.68;7.60;;;;;;;;;;7369211;19;20397;-68
2023/06/09 03:33:24;;;;;;;8.93;7.00;;;;;;;;;;7371521;19;20010;-67
2023/06/09 03:35:49;;;;;;;9.52;6.90;;;;;;;;;;7373375;19;20015;-67
2023/06/09 03:38:15;;;;;;;11.52;6.68;;;;;;;;;;7367980;19;20674;-67
2023/06/09 03:40:40;;;;;;;11.10;6.28;;;;;;;;;;7392121;19;20026;-68
2023/06/09 03:43:07;;;;;;;10.18;6.55;;;;;;;;;;7370002;19;20034;-67
2023/06/09 03:45:32;;;;;;;12.52;7.13;;;;;;;;;;7369871;19;20384;-68
2023/06/09 03:47:57;;;;;;;10.68;7.22;;;;;;;;;;7368087;19;20014;-68
2023/06/09 03:50:23;;;;;;;11.65;6.90;;;;;;;;;;7367332;19;20038;-68
2023/06/09 03:52:48;;;;;;;12.35;6.97;;;;;;;;;;7391300;19;20404;-67
2023/06/09 03:55:13;;;;;;;11.90;6.90;;;;;;;;;;7366394;19;20706;-67
2023/06/09 03:57:39;;;;;;;9.98;6.65;;;;;;;;;;7367699;19;20047;-67
2023/06/09 04:00:05;;;;;;;11.05;6.80;;;;;;;;;;7366664;19;20010;-67
2023/06/09 04:02:30;;;;;;;8.73;6.60;;;;;;;;;;7368628;19;20736;-67
2023/06/09 04:04:56;;;;;;;11.88;6.20;;;;;;;;;;7391263;19;20011;-67
2023/06/09 04:07:21;;;;;;;9.32;6.50;;;;;;;;;;7366817;19;20006;-68
2023/06/09 04:09:46;;;;;;;10.73;6.07;;;;;;;;;;7365042;19;20042;-68
2023/06/09 04:12:12;;;;;;;8.90;6.25;;;;;;;;;;7367655;19;20011;-68
2023/06/09 04:14:37;;;;;;;10.15;5.70;;;;;;;;;;7367176;19;20045;-68
2023/06/09 04:17:03;;;;;;;8.77;5.97;;;;;;;;;;7386880;19;20027;-67
2023/06/09 04:19:29;;;;;;;9.40;5.93;;;;;;;;;;7367221;19;20010;-67
2023/06/09 04:21:54;;;;;;;10.63;5.63;;;;;;;;;;7367156;19;20178;-67
2023/06/09 04:24:19;;;;;;;10.15;5.75;;;;;;;;;;7368779;19;20074;-67
2023/06/09 04:26:47;;;;;;;8.25;5.30;;;;;;;;;;7368099;19;20059;-67
2023/06/09 04:29:13;;;;;;;9.88;5.97;;;;;;;;;;7367563;19;20014;-67
2023/06/09 04:31:42;;;;;;;9.38;5.85;;;;;;;;;;7387774;19;20019;-67
2023/06/09 04:34:10;;;;;;;8.45;5.82;;;;;;;;;;7367945;19;20017;-67
2023/06/09 04:36:38;;;;;;;9.13;6.00;;;;;;;;;;7365300;19;20002;-68
2023/06/09 04:39:05;;;;;;;9.50;6.00;;;;;;;;;;7364559;19;20012;-68
2023/06/09 04:41:31;;;;;;;9.30;5.50;;;;;;;;;;7367151;19;20504;-68
2023/06/09 04:44:03;;;;;;;8.60;5.50;;;;;;;;;;7388118;19;20020;-68
2023/06/09 04:46:37;;;;;;;8.23;5.43;;;;;;;;;;7365998;19;20013;-68
2023/06/09 04:49:09;;;;;;;9.38;5.65;;;;;;;;;;7366050;19;20006;-68
2023/06/09 04:51:49;;;;;;;7.60;5.57;;;;;;;;;;7366764;19;20035;-67
2023/06/09 04:54:18;;;;;;;8.38;5.50;;;;;;;;;;7366834;19;20017;-68
2023/06/09 04:56:45;;;;;;;10.23;5.68;;;;;;;;;;7366191;19;20006;-68
2023/06/09 04:59:11;;;;;;;10.15;5.70;;;;;;;;;;7363932;19;20353;-68
2023/06/09 05:01:38;;;;;;;11.60;5.63;;;;;;;;;;7386631;19;20035;-68
2023/06/09 05:04:06;;;;;;;8.65;4.97;;;;;;;;;;7363970;19;20010;-67
2023/06/09 05:06:31;;;;;;;8.20;5.35;;;;;;;;;;7367205;19;20025;-67
2023/06/09 05:08:57;;;;;;;10.23;4.82;;;;;;;;;;7365658;19;20014;-66
2023/06/09 05:11:22;;;;;;;9.93;5.40;;;;;;;;;;7367458;19;20087;-66
2023/06/09 05:13:48;;;;;;;9.23;4.80;;;;;;;;;;7389938;19;20438;-65
2023/06/09 05:16:15;;;;;;;8.32;5.40;;;;;;;;;;7364764;19;20357;-66
2023/06/09 05:18:44;;;;;;;8.48;5.10;;;;;;;;;;7365385;19;20010;-63
2023/06/09 05:21:10;;;;;;;9.50;5.20;;;;;;;;;;7366845;19;20013;-63
2023/06/09 05:23:35;;;;;;;6.75;4.80;;;;;;;;;;7367419;19;20596;-65
2023/06/09 05:26:02;;;;;;;8.68;4.75;;;;;;;;;;7387542;19;20011;-65
2023/06/09 05:28:27;;;;;;;8.52;4.63;;;;;;;;;;7360730;19;20046;-65
2023/06/09 05:30:53;;;;;;;9.35;4.80;;;;;;;;;;7363642;19;20435;-64
2023/06/09 05:33:18;;;;;;;6.18;4.25;;;;;;;;;;7365691;19;20443;-65
2023/06/09 05:35:45;;;;;;;7.75;4.53;;;;;;;;;;7365175;19;20019;-68
2023/06/09 05:38:10;;;;;;;10.00;4.78;;;;;;;;;;7364205;19;20015;-65
2023/06/09 05:40:36;;;;;;;9.00;4.40;;;;;;;;;;7387605;19;20002;-63
2023/06/09 05:43:01;;;;;;;7.25;4.32;;;;;;;;;;7366332;19;20015;-62
2023/06/09 05:45:27;;;;;;;7.80;4.50;;;;;;;;;;7366716;19;20026;-62
2023/06/09 05:47:52;;;;;;;6.90;4.35;;;;;;;;;;7365585;19;20006;-63
2023/06/09 05:50:17;;;;;;;7.10;4.43;;;;;;;;;;7365176;19;20349;-63
2023/06/09 05:52:43;;;;;;;7.25;4.57;;;;;;;;;;7383756;19;20067;-62
2023/06/09 05:55:08;;;;;;;7.93;3.80;;;;;;;;;;7361128;19;20010;-63
2023/06/09 05:57:34;;;;;;;7.47;4.13;;;;;;;;;;7360924;19;20006;-63
2023/06/09 06:00:00;;;;;;;5.70;4.05;;;;;;;;;;7362666;19;20027;-67
2023/06/09 06:02:27;;;;;;;6.22;4.63;;;;;;;;;;7364784;19;20812;-67
2023/06/09 06:04:52;;;;;;;6.88;4.10;;;;;;;;;;7383691;19;20019;-67
2023/06/09 06:07:20;;;;;;;8.05;3.92;;;;;;;;;;7364333;19;20526;-67
2023/06/09 06:09:45;;;;;;;7.22;4.00;;;;;;;;;;7365102;19;20483;-67
2023/06/09 06:12:11;;;;;;;7.38;3.83;;;;;;;;;;7373400;19;20010;-67
2023/06/09 06:14:36;;;;;;;7.90;4.30;;;;;;;;;;7373101;19;20003;-67
2023/06/09 06:17:01;;;;;;;7.28;4.45;;;;;;;;;;7394852;19;20002;-67
2023/06/09 06:19:27;;;;;;;7.43;4.10;;;;;;;;;;7373075;19;20030;-67
2023/06/09 06:21:52;;;;;;;6.47;4.00;;;;;;;;;;7372477;19;20017;-67
2023/06/09 06:24:17;;;;;;;6.75;4.47;;;;;;;;;;7372901;19;20504;-67
2023/06/09 06:26:43;;;;;;;8.07;3.85;;;;;;;;;;7373148;19;20600;-67
2023/06/09 06:29:08;;;;;;;7.70;4.30;;;;;;;;;;7369777;19;20033;-67
2023/06/09 06:31:34;;;;;;;7.03;3.13;;;;;;;;;;7392093;19;20488;-67
2023/06/09 06:34:00;;;;;;;6.97;4.70;;;;;;;;;;7371664;19;20014;-67
2023/06/09 06:36:26;;;;;;;6.03;3.47;;;;;;;;;;7370659;19;20122;-67
2023/06/09 06:38:51;;;;;;;8.35;4.18;;;;;;;;;;7370831;19;20021;-67
2023/06/09 06:41:17;;;;;;;7.05;4.38;;;;;;;;;;7371904;19;20007;-67
2023/06/09 06:43:42;;;;;;;8.00;4.53;;;;;;;;;;7394331;19;20014;-67
2023/06/09 06:46:09;;;;;;;7.25;4.03;;;;;;;;;;7373156;19;20031;-67
2023/06/09 06:48:35;;;;;;;5.93;3.92;;;;;;;;;;7369640;19;20086;-67
2023/06/09 06:51:00;;;;;;;6.93;4.18;;;;;;;;;;7371129;19;20018;-67
2023/06/09 06:53:26;;;;;;;7.30;4.72;;;;;;;;;;7366900;19;20099;-67
2023/06/09 06:55:51;;;;;;;7.03;3.92;;;;;;;;;;7392517;19;20010;-67
2023/06/09 06:58:17;;;;;;;7.93;3.95;;;;;;;;;;7368277;19;20018;-67
2023/06/09 07:00:42;;;;;;;8.13;4.22;;;;;;;;;;7369264;19;20007;-67
2023/06/09 07:03:09;;;;;;;5.97;4.13;;;;;;;;;;7370972;19;20106;-67
2023/06/09 07:05:35;;;;;;;9.13;4.43;;;;;;;;;;7373664;19;20011;-67
2023/06/09 07:08:00;;;;;;;7.78;4.20;;;;;;;;;;7394232;19;20356;-67
2023/06/09 07:10:26;;;;;;;9.23;4.30;;;;;;;;;;7373211;19;20074;-67
2023/06/09 07:12:51;;;;;;;7.30;4.60;;;;;;;;;;7372941;19;20495;-68
2023/06/09 07:15:16;;;;;;;8.75;4.03;;;;;;;;;;7373289;19;20010;-66
2023/06/09 07:17:43;;;;;;;6.80;4.20;;;;;;;;;;7382487;19;20030;-66
2023/06/09 07:20:09;;;;;;;6.97;4.15;;;;;;;;;;7379862;19;20039;-66
2023/06/09 07:22:34;;;;;;;9.52;4.03;;;;;;;;;;7401429;19;20010;-67
2023/06/09 07:25:00;;;;;;;9.53;3.77;;;;;;;;;;7374773;19;20026;-67
2023/06/09 07:27:25;;;;;;;6.32;3.78;;;;;;;;;;7393706;19;20283;-66
2023/06/09 07:29:50;;;;;;;7.28;3.97;;;;;;;;;;7370949;19;20363;-67
2023/06/09 07:32:16;;;;;;;5.95;3.90;;;;;;;;;;7391121;19;20014;-68
2023/06/09 07:34:42;;;;;;;5.75;4.00;;;;;;;;;;7373349;19;20070;-67
2023/06/09 07:37:07;;;;;;;7.40;4.07;;;;;;;;;;7368260;19;20023;-67
2023/06/09 07:39:34;;;;;;;7.53;3.92;;;;;;;;;;7372093;19;20042;-67
2023/06/09 07:41:59;;;;;;;5.63;3.85;;;;;;;;;;7370339;19;20286;-67
2023/06/09 07:44:25;;;;;;;5.78;3.92;;;;;;;;;;7391457;19;20007;-67
2023/06/09 07:46:50;;;;;;;5.85;3.67;;;;;;;;;;7368214;19;19998;-67
2023/06/09 07:49:16;;;;;;;6.80;3.90;;;;;;;;;;7370264;19;20010;-67
2023/06/09 07:51:43;;;;;;;6.80;3.47;;;;;;;;;;7371186;19;20098;-67
2023/06/09 07:54:08;;;;;;;5.90;3.60;;;;;;;;;;7378152;19;20014;-67
2023/06/09 07:56:34;;;;;;;7.80;3.92;;;;;;;;;;7391232;19;20737;-67
2023/06/09 07:58:59;;;;;;;5.57;3.70;;;;;;;;;;7373567;19;20278;-67
2023/06/09 08:01:25;;;;;;;5.88;3.72;;;;;;;;;;7372211;19;20738;-68
2023/06/09 08:03:51;;;;;;;8.10;3.95;;;;;;;;;;7369659;19;20014;-67
2023/06/09 08:06:16;;;;;;;6.43;3.80;;;;;;;;;;7370121;19;20015;-67
2023/06/09 08:08:42;;;;;;;6.15;4.30;;;;;;;;;;7391208;19;19998;-67
2023/06/09 08:11:07;;;;;;;8.73;3.70;;;;;;;;;;7368689;19;20679;-67
2023/06/09 08:13:33;;;;;;;6.47;3.88;;;;;;;;;;7369087;19;20006;-67
2023/06/09 08:15:58;;;;;;;5.22;3.42;;;;;;;;;;7369216;19;20011;-67
2023/06/09 08:18:23;;;;;;;6.05;3.10;;;;;;;;;;7366211;19;20010;-68
2023/06/09 08:20:49;;;;;;;6.07;3.92;;;;;;;;;;7364265;19;20527;-69
2023/06/09 08:23:15;;;;;;;5.53;3.58;;;;;;;;;;7387598;19;20009;-67
2023/06/09 08:25:41;;;;;;;4.90;3.47;;;;;;;;;;7368350;19;20010;-67
2023/06/09 08:28:06;;;;;;;6.72;3.50;;;;;;;;;;7365789;19;20021;-67
2023/06/09 08:30:32;;;;;;;7.50;3.63;;;;;;;;;;7364773;19;20010;-67
2023/06/09 08:32:57;;;;;;;6.50;3.50;;;;;;;;;;7364235;19;20015;-68
2023/06/09 08:35:22;;;;;;;8.40;3.50;;;;;;;;;;7386667;19;20009;-68
2023/06/09 08:37:48;;;;;;;6.72;3.03;;;;;;;;;;7366093;19;20010;-67
2023/06/09 08:40:13;;;;;;;7.63;3.83;;;;;;;;;;7367245;19;20074;-68
2023/06/09 08:42:39;;;;;;;7.35;3.40;;;;;;;;;;7366508;19;20010;-68
2023/06/09 08:45:05;;;;;;;5.13;3.15;;;;;;;;;;7366412;19;20462;-68
2023/06/09 08:47:32;;;;;;;5.60;3.60;;;;;;;;;;7389346;19;20002;-68
2023/06/09 08:49:59;;;;;;;5.35;3.60;;;;;;;;;;7383267;19;20010;-68
2023/06/09 08:52:26;;;;;;;5.38;3.53;;;;;;;;;;7385965;19;20584;-68
2023/06/09 08:54:53;;;;;;;5.72;3.47;;;;;;;;;;7391129;19;20014;-68
2023/06/09 08:57:19;;;;;;;8.18;3.50;;;;;;;;;;7386134;19;20017;-68
2023/06/09 08:59:47;;;;;;;6.28;3.75;;;;;;;;;;7387802;19;20018;-68
2023/06/09 09:02:13;;;;;;;5.68;3.50;;;;;;;;;;7389358;19;20010;-68
2023/06/09 09:04:38;;;;;;;5.95;3.50;;;;;;;;;;7388933;19;20018;-68
2023/06/09 09:07:08;;;;;;;5.18;3.53;;;;;;;;;;7389447;19;20098;-68
2023/06/09 09:09:34;;;;;;;6.88;3.40;;;;;;;;;;7388854;19;20103;-68
2023/06/09 09:12:01;;;;;;;4.95;3.60;;;;;;;;;;7380448;19;20010;-68
2023/06/09 09:14:27;;;;;;;6.78;3.55;;;;;;;;;;7384880;19;20014;-68
2023/06/09 09:16:52;;;;;;;8.38;3.35;;;;;;;;;;7385973;19;20350;-68
2023/06/09 09:19:27;;;;;;;5.75;3.33;;;;;;;;;;7385608;19;20337;-68
2023/06/09 09:21:55;;;;;;;7.97;3.45;;;;;;;;;;7382700;19;20471;-72
2023/06/09 09:24:20;;;;;;;5.22;3.38;;;;;;;;;;7382402;19;20051;-68
2023/06/09 09:26:45;;;;;;;5.97;3.60;;;;;;;;;;7385217;19;20572;-69
2023/06/09 09:29:11;;;;;;;6.20;3.08;;;;;;;;;;7387223;19;20561;-68
2023/06/09 09:31:41;;;;;;;4.30;2.90;;;;;;;;;;7389499;19;20006;-68
2023/06/09 09:34:13;;;;;;;;;;;;;;;;;;7389397;19;20006;-68
2023/06/09 09:36:45;;;;;;;5.30;3.17;;;;;;;;;;7387160;19;19925;-69
2023/06/09 09:39:11;;;;;;;5.10;3.22;;;;;;;;;;7385338;19;20345;-68
2023/06/09 09:41:36;;;;;;;5.68;3.13;;;;;;;;;;7388523;19;20377;-68
2023/06/09 09:44:01;;;;;;;6.32;3.20;;;;;;;;;;7387889;19;20030;-67
2023/06/09 09:46:35;;;;;;;5.28;3.10;;;;;;;;;;7394342;19;19999;-68
2023/06/09 09:49:01;;;;;;;8.50;3.28;;;;;;;;;;7394460;19;20007;-68
2023/06/09 09:51:27;;;;;;;5.22;3.30;;;;;;;;;;7395274;19;20006;-68
2023/06/09 09:53:58;;;;;;;5.50;3.08;;;;;;;;;;7394675;19;20773;-68
2023/06/09 09:56:25;;;;;;;5.60;3.10;;;;;;;;;;7394956;19;20026;-68
2023/06/09 09:58:53;;;;;;;6.20;3.55;;;;;;;;;;7393007;19;20029;-68
2023/06/09 10:01:23;;;;;;;6.07;3.15;;;;;;;;;;7393661;19;20002;-68
2023/06/09 10:03:48;;;;;;;6.43;3.20;;;;;;;;;;7391206;19;20007;-68
2023/06/09 10:06:18;;;;;;;5.93;3.10;;;;;;;;;;7392074;19;20009;-68
2023/06/09 10:08:44;;;;;;;;;;;;;;;;;;7390593;19;20455;-68
2023/06/09 10:11:13;;;;;;;6.07;3.22;;;;;;;;;;7389883;19;19925;-67
2023/06/09 10:13:40;;;;;;;5.57;3.67;;;;;;;;;;7391446;19;20082;-68
2023/06/09 10:16:06;;;;;;;5.28;3.38;;;;;;;;;;7390458;19;20014;-68
2023/06/09 10:18:32;;;;;;;6.80;3.50;;;;;;;;;;7391684;19;20030;-69
2023/06/09 10:20:58;;;;;;;8.95;3.75;;;;;;;;;;7394204;19;20487;-68
2023/06/09 10:23:25;;;;;;;5.45;3.20;;;;;;;;;;7396197;19;20082;-68
2023/06/09 10:25:51;;;;;;;5.65;3.58;;;;;;;;;;7394479;19;20011;-69
2023/06/09 10:28:18;;;;;;;6.20;3.38;;;;;;;;;;7390421;19;20006;-69
2023/06/09 10:30:53;;;;;;;7.30;3.28;;;;;;;;;;7392207;19;20456;-67
2023/06/09 10:33:26;;;;;;;5.40;3.20;;;;;;;;;;7393353;19;20029;-68
2023/06/09 10:35:58;;;;;;;4.90;3.45;;;;;;;;;;7390374;19;20085;-69
2023/06/09 10:38:30;;;;;;;4.68;3.08;;;;;;;;;;7391792;19;20002;-69
2023/06/09 10:41:08;;;;;;;6.68;3.28;;;;;;;;;;7392328;19;20002;-69
2023/06/09 10:43:52;;;;;;;6.95;3.65;;;;;;;;;;7394086;19;20372;-68
2023/06/09 10:46:17;;;;;;;5.95;3.70;;;;;;;;;;7394190;19;20019;-68
2023/06/09 10:48:50;;;;;;;5.97;3.20;;;;;;;;;;7389747;19;20010;-68
2023/06/09 10:51:24;;;;;;;5.07;3.47;;;;;;;;;;7391842;19;20015;-68
2023/06/09 10:54:09;;;;;;;5.13;3.58;;;;;;;;;;7392090;19;20006;-68
2023/06/09 10:56:55;;;;;;;5.22;3.33;;;;;;;;;;7385892;19;20010;-68
2023/06/09 10:59:23;;;;;;;5.45;3.60;;;;;;;;;;7385590;19;20039;-67
2023/06/09 11:02:00;;;;;;;5.80;3.40;;;;;;;;;;7392163;19;20010;-68
2023/06/09 11:04:39;;;;;;;5.60;3.38;;;;;;;;;;7390421;19;20105;-67
2023/06/09 11:07:20;;;;;;;5.25;3.30;;;;;;;;;;7388773;19;20124;-67
2023/06/09 11:09:51;;;;;;;7.43;3.05;;;;;;;;;;7389424;19;20078;-67
2023/06/09 11:12:50;;;;;;;8.52;3.30;;;;;;;;;;7395495;19;20007;-67
2023/06/09 11:15:16;;;;;;;5.05;2.85;;;;;;;;;;7395292;19;20006;-65
2023/06/09 11:17:43;;;;;;;4.82;3.10;;;;;;;;;;7396501;19;20017;-66
2023/06/09 11:20:11;;;;;;;4.97;3.13;;;;;;;;;;7393289;19;20014;-66
2023/06/09 11:22:43;;;;;;;5.78;3.15;;;;;;;;;;7392300;19;20027;-66
2023/06/09 11:25:30;;;;;;;5.60;3.17;;;;;;;;;;7388105;19;20754;-66
2023/06/09 11:27:55;;;;;;;5.47;3.45;;;;;;;;;;7384258;19;20476;-66
2023/06/09 11:30:23;;;;;;;6.28;3.20;;;;;;;;;;7389933;19;20027;-66
2023/06/09 11:32:56;;;;;;;5.43;2.97;;;;;;;;;;7388301;19;20569;-66
2023/06/09 11:35:28;;;;;;;6.68;3.20;;;;;;;;;;7387277;19;20082;-66
2023/06/09 11:37:54;;;;;;;8.13;3.30;;;;;;;;;;7388438;19;20047;-66
2023/06/09 11:40:19;;;;;;;5.18;3.22;;;;;;;;;;7392398;19;20092;-69
2023/06/09 11:42:45;;;;;;;6.75;3.20;;;;;;;;;;7394226;19;20060;-68
2023/06/09 11:45:11;;;;;;;4.40;2.90;;;;;;;;;;7393170;19;19998;-68
2023/06/09 11:47:40;;;;;;;5.15;3.35;;;;;;;;;;7391397;19;20019;-68
2023/06/09 11:50:11;;;;;;;7.15;3.22;;;;;;;;;;7391386;19;19998;-67
2023/06/09 11:52:37;;;;;;;5.40;3.35;;;;;;;;;;7388278;19;19994;-68
2023/06/09 11:55:05;;;;;;;5.50;3.10;;;;;;;;;;7389599;19;20014;-67
2023/06/09 11:57:32;;;;;;;4.45;2.85;;;;;;;;;;7391306;19;20002;-67
2023/06/09 11:59:57;;;;;;;6.38;3.20;;;;;;;;;;7391719;19;20011;-67
2023/06/09 12:02:25;;;;;;;5.47;3.08;;;;;;;;;;7391922;19;20010;-67
2023/06/09 12:04:50;;;;;;;5.80;3.30;;;;;;;;;;7392989;19;20006;-67
2023/06/09 12:07:17;;;;;;;7.57;3.40;;;;;;;;;;7392276;19;20025;-68
2023/06/09 12:09:45;;;;;;;6.18;3.08;;;;;;;;;;7393178;19;19998;-69
2023/06/09 12:12:11;;;;;;;5.88;3.47;;;;;;;;;;7393654;19;20009;-67
2023/06/09 12:14:38;;;;;;;5.63;3.20;;;;;;;;;;7391711;19;20504;-67
2023/06/09 12:17:04;;;;;;;6.20;3.80;;;;;;;;;;7392478;19;20010;-67
2023/06/09 12:19:29;;;;;;;7.00;3.83;;;;;;;;;;7395017;19;20009;-67
2023/06/09 12:21:55;;;;;;;5.68;3.65;;;;;;;;;;7399845;19;20066;-67
2023/06/09 12:24:21;;;;;;;7.00;3.40;;;;;;;;;;7394244;19;19994;-67
2023/06/09 12:26:49;;;;;;;8.80;4.00;;;;;;;;;;7392982;19;20102;-67
2023/06/09 12:29:16;;;;;;;10.55;3.70;;;;;;;;;;7390525;19;20484;-68
2023/06/09 12:31:46;;;;;;;6.38;3.53;;;;;;;;;;7393390;19;20100;-67
2023/06/09 12:34:29;;;;;;;6.75;3.58;;;;;;;;;;7392248;19;20027;-66
2023/06/09 12:36:58;;;;;;;7.57;3.60;;;;;;;;;;7391129;19;20027;-67
2023/06/09 12:39:32;;;;;;;8.88;3.35;;;;;;;;;;7392170;19;20023;-67
2023/06/09 12:41:58;;;;;;;5.82;3.70;;;;;;;;;;7392677;19;20010;-68
2023/06/09 12:44:25;;;;;;;5.72;3.13;;;;;;;;;;7391525;19;20633;-67
2023/06/09 12:46:56;;;;;;;6.38;3.85;;;;;;;;;;7390518;19;20022;-67
2023/06/09 12:49:29;;;;;;;9.25;3.92;;;;;;;;;;7391058;19;20006;-68
2023/06/09 12:51:54;;;;;;;6.55;3.60;;;;;;;;;;7393045;19;20017;-67
2023/06/09 12:54:20;;;;;;;5.70;3.60;;;;;;;;;;7391087;19;19995;-67
2023/06/09 12:56:45;;;;;;;6.28;3.60;;;;;;;;;;7387514;19;20001;-68
2023/06/09 12:59:11;;;;;;;6.15;3.45;;;;;;;;;;7389824;19;20017;-68
2023/06/09 13:01:36;;;;;;;6.63;3.53;;;;;;;;;;7391592;19;20006;-68
2023/06/09 13:04:02;;;;;;;5.85;3.88;;;;;;;;;;7391202;19;20002;-68
2023/06/09 13:06:27;;;;;;;5.00;3.30;;;;;;;;;;7389012;19;20473;-69
2023/06/09 13:08:54;;;;;;;6.07;3.88;;;;;;;;;;7390206;19;19998;-68
2023/06/09 13:11:19;;;;;;;7.05;3.60;;;;;;;;;;7390852;19;19999;-68
2023/06/09 13:13:44;;;;;;;7.65;4.25;;;;;;;;;;7389563;19;20585;-67
2023/06/09 13:16:10;;;;;;;6.90;4.10;;;;;;;;;;7389242;19;19995;-68
2023/06/09 13:18:36;;;;;;;8.73;3.83;;;;;;;;;;7387792;19;20028;-67
2023/06/09 13:21:01;;;;;;;4.88;3.47;;;;;;;;;;7395898;19;20733;-68
2023/06/09 13:23:26;;;;;;;8.07;3.80;;;;;;;;;;7397365;19;20471;-68
2023/06/09 13:25:52;;;;;;;5.28;3.55;;;;;;;;;;7398605;19;20657;-68
2023/06/09 13:28:18;;;;;;;6.47;3.60;;;;;;;;;;7395328;19;20007;-68
2023/06/09 13:30:44;;;;;;;7.63;4.15;;;;;;;;;;7398838;19;20023;-68
2023/06/09 13:33:10;;;;;;;7.43;3.72;;;;;;;;;;7399285;19;20026;-66
2023/06/09 13:35:37;;;;;;;4.93;3.53;;;;;;;;;;7399584;19;20086;-67
2023/06/09 13:38:05;;;;;;;6.15;3.53;;;;;;;;;;7395645;19;20003;-67
2023/06/09 13:40:31;;;;;;;6.13;3.80;;;;;;;;;;7397016;19;20054;-68
2023/06/09 13:42:57;;;;;;;5.47;3.33;;;;;;;;;;7396310;19;20041;-68
2023/06/09 13:45:23;;;;;;;6.60;3.45;;;;;;;;;;7397853;19;19995;-67
2023/06/09 13:47:49;;;;;;;7.43;3.33;;;;;;;;;;7395763;19;19994;-68
2023/06/09 13:50:14;;;;;;;7.07;3.97;;;;;;;;;;7397046;19;20396;-68
2023/06/09 13:52:40;;;;;;;6.45;3.40;;;;;;;;;;7397579;19;20401;-68
2023/06/09 13:55:07;;;;;;;6.53;3.25;;;;;;;;;;7397492;19;19995;-68
2023/06/09 13:57:32;;;;;;;6.13;3.63;;;;;;;;;;7395775;19;20030;-67
2023/06/09 13:59:57;;;;;;;5.82;3.63;;;;;;;;;;7398160;19;20567;-66
2023/06/09 14:02:23;;;;;;;7.03;3.60;;;;;;;;;;7401130;19;20093;-68
2023/06/09 14:04:48;;;;;;;9.40;3.83;;;;;;;;;;7394427;19;20074;-67
2023/06/09 14:07:13;;;;;;;5.53;3.40;;;;;;;;;;7391647;19;20003;-67
2023/06/09 14:09:39;;;;;;;5.27;3.47;;;;;;;;;;7396988;19;20011;-68
2023/06/09 14:12:05;;;;;;;6.28;3.25;;;;;;;;;;7396630;19;20268;-67
2023/06/09 14:14:31;;;;;;;6.82;3.40;;;;;;;;;;7395429;19;20070;-67
2023/06/09 14:16:57;;;;;;;5.68;3.50;;;;;;;;;;7395121;19;20027;-67
2023/06/09 14:19:22;;;;;;;6.22;3.50;;;;;;;;;;7395374;19;20002;-67
2023/06/09 14:21:48;;;;;;;5.50;2.90;;;;;;;;;;7395304;19;20038;-67
2023/06/09 14:24:13;;;;;;;8.60;3.55;;;;;;;;;;7396975;19;20011;-68
2023/06/09 14:26:39;;;;;;;5.25;3.45;;;;;;;;;;7396588;19;20010;-68
2023/06/09 14:29:05;;;;;;;5.65;3.28;;;;;;;;;;7396132;19;20095;-67
2023/06/09 14:31:30;;;;;;;6.75;3.67;;;;;;;;;;7395101;19;20003;-67
2023/06/09 14:33:55;;;;;;;5.35;3.50;;;;;;;;;;7395665;19;20011;-67
2023/06/09 14:36:21;;;;;;;7.93;3.78;;;;;;;;;;7394497;19;20357;-67
2023/06/09 14:38:46;;;;;;;6.80;4.05;;;;;;;;;;7394771;19;20350;-67
2023/06/09 14:41:11;;;;;;;7.30;3.88;;;;;;;;;;7396200;19;20007;-67